createdAt,value
2018-12-06T00:02:19.255Z,8.60
2018-12-06T00:04:47.590Z,8.60
2018-12-06T00:07:15.839Z,8.60
2018-12-06T00:09:44.199Z,8.60
2018-12-06T00:12:12.567Z,8.60
2018-12-06T00:14:40.810Z,8.60
2018-12-06T00:17:09.037Z,8.60
2018-12-06T00:19:37.388Z,8.60
2018-12-06T00:22:05.699Z,8.60
2018-12-06T00:24:33.934Z,8.60
2018-12-06T00:27:02.352Z,8.60
2018-12-06T00:29:30.632Z,8.60
2018-12-06T00:31:58.886Z,8.60
2018-12-06T00:34:27.151Z,8.60
2018-12-06T00:36:55.386Z,8.60
2018-12-06T00:39:23.731Z,8.60
2018-12-06T00:41:52.067Z,8.70
2018-12-06T00:44:20.338Z,8.70
2018-12-06T00:46:48.602Z,8.70
2018-12-06T00:49:16.898Z,8.70
2018-12-06T00:51:45.162Z,8.70
2018-12-06T00:54:13.537Z,8.70
2018-12-06T00:56:41.770Z,8.70
2018-12-06T00:59:10.032Z,8.70
2018-12-06T01:01:38.266Z,8.70
2018-12-06T01:04:06.521Z,8.70
2018-12-06T01:06:34.857Z,8.70
2018-12-06T01:09:03.561Z,8.70
2018-12-06T01:11:32.266Z,8.70
2018-12-06T01:14:00.524Z,8.80
2018-12-06T01:16:28.757Z,8.80
2018-12-06T01:18:57.004Z,8.80
2018-12-06T01:21:25.330Z,8.80
2018-12-06T01:23:53.563Z,8.80
2018-12-06T01:26:22.065Z,8.80
2018-12-06T01:28:50.293Z,8.80
2018-12-06T01:31:18.545Z,8.80
2018-12-06T01:33:46.787Z,8.80
2018-12-06T01:36:15.044Z,8.80
2018-12-06T01:38:43.418Z,8.80
2018-12-06T01:41:11.814Z,8.80
2018-12-06T01:43:40.115Z,8.90
2018-12-06T01:46:08.446Z,8.90
2018-12-06T01:48:36.669Z,8.90
2018-12-06T01:51:05.156Z,8.90
2018-12-06T01:53:33.411Z,8.90
2018-12-06T01:56:01.658Z,8.90
2018-12-06T01:58:29.898Z,8.90
2018-12-06T02:00:58.227Z,8.90
2018-12-06T02:03:26.572Z,8.90
2018-12-06T02:05:54.916Z,8.90
2018-12-06T02:08:29.717Z,8.90
2018-12-06T02:10:57.994Z,8.90
2018-12-06T02:13:26.271Z,9.00
2018-12-06T02:15:54.527Z,9.00
2018-12-06T02:18:23.069Z,9.00
2018-12-06T02:20:51.475Z,9.00
2018-12-06T02:23:19.893Z,9.00
2018-12-06T02:25:48.147Z,9.00
2018-12-06T02:28:16.402Z,9.00
2018-12-06T02:30:44.650Z,9.00
2018-12-06T02:33:12.870Z,9.00
2018-12-06T02:35:41.132Z,9.10
2018-12-06T02:38:09.368Z,9.10
2018-12-06T02:40:37.603Z,9.10
2018-12-06T02:43:05.862Z,9.10
2018-12-06T02:45:34.107Z,9.10
2018-12-06T02:48:02.381Z,9.20
2018-12-06T02:50:30.640Z,9.20
2018-12-06T02:52:58.967Z,9.20
2018-12-06T02:55:27.251Z,9.20
2018-12-06T02:57:55.484Z,9.20
2018-12-06T03:00:24.185Z,9.30
2018-12-06T03:02:52.523Z,9.30
2018-12-06T03:05:20.758Z,9.30
2018-12-06T03:07:49.010Z,9.30
2018-12-06T03:10:17.271Z,9.30
2018-12-06T03:12:45.591Z,9.40
2018-12-06T03:15:13.841Z,9.40
2018-12-06T03:17:42.185Z,9.40
2018-12-06T03:20:10.418Z,9.40
2018-12-06T03:22:38.725Z,9.40
2018-12-06T03:25:07.143Z,9.50
2018-12-06T03:27:35.374Z,9.50
2018-12-06T03:30:04.313Z,9.50
2018-12-06T03:32:32.632Z,9.50
2018-12-06T03:35:00.893Z,9.50
2018-12-06T03:37:29.196Z,9.50
2018-12-06T03:39:57.445Z,9.50
2018-12-06T03:42:25.700Z,9.50
2018-12-06T03:44:53.913Z,9.50
2018-12-06T03:47:22.342Z,9.50
2018-12-06T03:49:50.603Z,9.60
2018-12-06T03:52:18.875Z,9.60
2018-12-06T03:55:01.753Z,9.60
2018-12-06T03:57:30.082Z,9.60
2018-12-06T03:59:58.311Z,9.60
2018-12-06T04:02:26.549Z,9.70
2018-12-06T04:04:54.780Z,9.70
2018-12-06T04:07:23.182Z,9.70
2018-12-06T04:09:51.415Z,9.70
2018-12-06T04:12:19.740Z,9.70
2018-12-06T04:14:47.978Z,9.70
2018-12-06T04:17:16.221Z,9.70
2018-12-06T04:19:44.491Z,9.70
2018-12-06T04:22:13.082Z,9.80
2018-12-06T04:24:41.345Z,9.80
2018-12-06T04:27:09.583Z,9.80
2018-12-06T04:29:37.840Z,9.80
2018-12-06T04:32:06.055Z,9.80
2018-12-06T04:34:34.296Z,9.80
2018-12-06T04:37:02.603Z,9.80
2018-12-06T04:39:30.936Z,9.80
2018-12-06T04:41:59.170Z,9.80
2018-12-06T04:44:27.421Z,9.80
2018-12-06T04:46:55.686Z,9.80
2018-12-06T04:49:23.975Z,9.80
2018-12-06T04:51:52.247Z,9.80
2018-12-06T04:54:20.618Z,9.80
2018-12-06T04:56:48.959Z,9.80
2018-12-06T04:59:17.226Z,9.90
2018-12-06T05:01:45.534Z,9.90
2018-12-06T05:04:13.785Z,9.90
2018-12-06T05:06:42.019Z,9.90
2018-12-06T05:09:10.368Z,9.90
2018-12-06T05:11:38.620Z,9.90
2018-12-06T05:14:06.863Z,9.90
2018-12-06T05:16:35.152Z,9.90
2018-12-06T05:19:03.484Z,9.90
2018-12-06T05:21:31.866Z,9.90
2018-12-06T05:24:00.133Z,10.00
2018-12-06T05:26:28.470Z,10.00
2018-12-06T05:28:56.754Z,10.00
2018-12-06T05:31:25.021Z,10.00
2018-12-06T05:33:54.110Z,10.00
2018-12-06T05:36:22.566Z,10.00
2018-12-06T05:38:50.825Z,10.10
2018-12-06T05:41:19.106Z,10.10
2018-12-06T05:43:47.386Z,10.10
2018-12-06T05:46:15.629Z,10.10
2018-12-06T05:48:43.948Z,10.10
2018-12-06T05:51:12.196Z,10.20
2018-12-06T05:53:40.441Z,10.20
2018-12-06T05:56:08.698Z,10.20
2018-12-06T05:58:36.998Z,10.20
2018-12-06T06:01:05.587Z,10.20
2018-12-06T06:03:34.063Z,10.20
2018-12-06T06:06:02.353Z,10.20
2018-12-06T06:08:30.671Z,10.20
2018-12-06T06:10:58.972Z,10.20
2018-12-06T06:13:27.230Z,10.30
2018-12-06T06:15:55.486Z,10.30
2018-12-06T06:18:23.914Z,10.30
2018-12-06T06:20:52.223Z,10.30
2018-12-06T06:23:20.485Z,10.30
2018-12-06T06:25:48.755Z,10.30
2018-12-06T06:28:17.037Z,10.30
2018-12-06T06:30:45.281Z,10.30
2018-12-06T06:33:13.523Z,10.30
2018-12-06T06:35:41.769Z,10.30
2018-12-06T06:38:09.978Z,10.30
2018-12-06T06:40:38.261Z,10.30
2018-12-06T06:43:06.619Z,10.30
2018-12-06T06:45:34.877Z,10.40
2018-12-06T06:48:03.097Z,10.40
2018-12-06T06:50:31.325Z,10.40
2018-12-06T06:52:59.549Z,10.40
2018-12-06T06:55:27.796Z,10.40
2018-12-06T06:57:56.022Z,10.40
2018-12-06T07:00:24.361Z,10.40
2018-12-06T07:02:52.665Z,10.40
2018-12-06T07:05:21.119Z,10.40
2018-12-06T07:07:49.342Z,10.40
2018-12-06T07:10:17.663Z,10.40
2018-12-06T07:12:45.995Z,10.50
2018-12-06T07:15:14.379Z,10.50
2018-12-06T07:17:43.010Z,10.50
2018-12-06T07:20:11.249Z,10.50
2018-12-06T07:22:39.593Z,10.50
2018-12-06T07:25:08.323Z,10.50
2018-12-06T07:27:36.575Z,10.60
2018-12-06T07:30:12.091Z,10.50
2018-12-06T07:32:35.912Z,10.60
2018-12-06T07:35:04.528Z,10.50
2018-12-06T07:37:32.910Z,10.50
2018-12-06T07:40:01.155Z,10.60
2018-12-06T07:42:29.475Z,10.50
2018-12-06T07:44:57.724Z,10.50
2018-12-06T07:47:25.983Z,10.60
2018-12-06T07:49:54.252Z,10.60
2018-12-06T07:52:23.434Z,10.60
2018-12-06T07:54:51.690Z,10.60
2018-12-06T07:57:19.943Z,10.60
2018-12-06T07:59:48.199Z,10.60
2018-12-06T08:02:16.439Z,10.60
2018-12-06T08:04:44.938Z,10.70
2018-12-06T08:07:13.537Z,10.70
2018-12-06T08:09:41.850Z,10.70
2018-12-06T08:12:10.273Z,10.70
2018-12-06T08:14:38.544Z,10.70
2018-12-06T08:17:06.893Z,10.70
2018-12-06T08:19:35.142Z,10.70
2018-12-06T08:24:46.334Z,10.70
2018-12-06T08:27:14.991Z,10.70
2018-12-06T08:29:43.250Z,10.70
2018-12-06T08:32:11.536Z,10.70
2018-12-06T08:34:39.838Z,10.70
2018-12-06T08:37:08.922Z,10.70
2018-12-06T08:39:37.169Z,10.70
2018-12-06T08:42:05.405Z,10.70
2018-12-06T08:44:33.662Z,10.70
2018-12-06T08:47:01.917Z,10.70
2018-12-06T08:49:30.167Z,10.70
2018-12-06T08:51:58.414Z,10.70
2018-12-06T08:54:26.670Z,10.80
2018-12-06T08:56:54.936Z,10.70
2018-12-06T08:59:23.191Z,10.80
2018-12-06T09:01:51.447Z,10.80
2018-12-06T09:04:19.691Z,10.70
2018-12-06T09:06:47.954Z,10.70
2018-12-06T09:09:16.222Z,10.80
2018-12-06T09:11:44.507Z,10.80
2018-12-06T09:14:12.758Z,10.80
2018-12-06T09:16:41.008Z,10.80
2018-12-06T09:19:09.273Z,10.80
2018-12-06T09:21:37.494Z,10.80
2018-12-06T09:24:05.839Z,10.80
2018-12-06T09:26:34.050Z,10.80
2018-12-06T09:29:02.431Z,10.80
2018-12-06T09:31:30.710Z,10.80
2018-12-06T09:34:05.187Z,10.80
2018-12-06T09:36:33.597Z,10.90
2018-12-06T09:39:01.908Z,10.90
2018-12-06T09:41:30.159Z,10.90
2018-12-06T09:43:58.506Z,10.80
2018-12-06T09:46:28.910Z,10.90
2018-12-06T09:48:57.160Z,10.90
2018-12-06T09:51:25.408Z,10.90
2018-12-06T09:53:53.766Z,10.90
2018-12-06T09:56:22.154Z,10.90
2018-12-06T09:58:50.534Z,10.90
2018-12-06T10:01:18.899Z,10.90
2018-12-06T10:03:47.169Z,10.90
2018-12-06T10:06:15.537Z,10.90
2018-12-06T10:08:43.776Z,10.90
2018-12-06T10:11:13.305Z,10.90
2018-12-06T10:13:41.541Z,10.90
2018-12-06T10:16:09.802Z,10.90
2018-12-06T10:18:38.110Z,10.90
2018-12-06T10:21:06.483Z,10.90
2018-12-06T10:23:34.830Z,10.90
2018-12-06T10:26:03.090Z,10.90
2018-12-06T10:28:31.399Z,10.90
2018-12-06T10:30:59.651Z,10.90
2018-12-06T10:33:27.922Z,10.90
2018-12-06T10:35:56.145Z,10.90
2018-12-06T10:38:24.552Z,11.00
2018-12-06T10:40:52.894Z,11.00
2018-12-06T10:43:21.423Z,11.00
2018-12-06T10:45:49.739Z,11.00
2018-12-06T10:48:24.307Z,11.00
2018-12-06T10:50:54.614Z,11.00
2018-12-06T10:53:23.005Z,11.00
2018-12-06T10:55:51.259Z,11.00
2018-12-06T10:58:19.520Z,11.00
2018-12-06T11:00:57.208Z,11.00
2018-12-06T11:03:25.558Z,11.00
2018-12-06T11:05:53.880Z,11.00
2018-12-06T11:08:22.135Z,11.10
2018-12-06T11:10:50.381Z,11.10
2018-12-06T11:13:18.599Z,11.10
2018-12-06T11:15:46.888Z,11.10
2018-12-06T11:18:15.129Z,11.10
2018-12-06T11:20:43.427Z,11.10
2018-12-06T11:23:11.709Z,11.10
2018-12-06T11:25:39.955Z,11.10
2018-12-06T11:28:08.206Z,11.10
2018-12-06T11:30:36.504Z,11.10
2018-12-06T11:33:04.875Z,11.10
2018-12-06T11:35:33.207Z,11.10
2018-12-06T11:38:01.543Z,11.20
2018-12-06T11:40:29.819Z,11.20
2018-12-06T11:42:58.143Z,11.20
2018-12-06T11:45:26.458Z,11.20
2018-12-06T11:47:55.994Z,11.20
2018-12-06T11:50:24.796Z,11.20
2018-12-06T11:52:53.131Z,11.20
2018-12-06T11:55:21.455Z,11.20
2018-12-06T11:57:49.860Z,11.20
2018-12-06T12:00:18.199Z,11.20
2018-12-06T12:02:46.540Z,11.20
2018-12-06T12:05:14.862Z,11.20
2018-12-06T12:07:43.234Z,11.20
2018-12-06T12:10:11.588Z,11.20
2018-12-06T12:12:39.851Z,11.20
2018-12-06T12:15:08.250Z,11.20
2018-12-06T12:17:36.502Z,11.20
2018-12-06T12:20:05.808Z,11.30
2018-12-06T12:22:34.463Z,11.30
2018-12-06T12:25:02.702Z,11.30
2018-12-06T12:27:30.967Z,11.30
2018-12-06T12:29:59.218Z,11.30
2018-12-06T12:32:27.482Z,11.30
2018-12-06T12:34:55.744Z,11.30
2018-12-06T12:37:24.091Z,11.30
2018-12-06T12:39:52.358Z,11.30
2018-12-06T12:42:20.604Z,11.30
2018-12-06T12:44:48.939Z,11.30
2018-12-06T12:47:17.184Z,11.30
2018-12-06T12:49:45.467Z,11.30
2018-12-06T12:52:13.908Z,11.30
2018-12-06T12:54:42.163Z,11.30
2018-12-06T12:57:10.396Z,11.30
2018-12-06T12:59:38.833Z,11.30
2018-12-06T13:02:07.091Z,11.30
2018-12-06T13:04:35.411Z,11.30
2018-12-06T13:07:10.139Z,11.30
2018-12-06T13:09:38.473Z,11.30
2018-12-06T13:12:06.880Z,11.30
2018-12-06T13:14:35.431Z,11.30
2018-12-06T13:17:04.322Z,11.30
2018-12-06T13:20:06.382Z,11.30
2018-12-06T13:22:34.766Z,11.30
2018-12-06T13:25:03.001Z,11.30
2018-12-06T13:27:31.219Z,11.30
2018-12-06T13:29:59.614Z,11.30
2018-12-06T13:32:28.251Z,11.30
2018-12-06T13:34:56.559Z,11.30
2018-12-06T13:37:24.781Z,11.30
2018-12-06T13:39:53.103Z,11.30
2018-12-06T13:42:23.763Z,11.30
2018-12-06T13:44:51.766Z,11.30
2018-12-06T13:47:20.012Z,11.30
2018-12-06T13:49:48.330Z,11.30
2018-12-06T13:52:16.568Z,11.30
2018-12-06T13:54:44.826Z,11.30
2018-12-06T13:57:13.077Z,11.40
2018-12-06T13:59:41.399Z,11.40
2018-12-06T14:02:09.739Z,11.40
2018-12-06T14:04:37.967Z,11.40
2018-12-06T14:07:06.189Z,11.40
2018-12-06T14:09:34.419Z,11.40
2018-12-06T14:12:02.642Z,11.40
2018-12-06T14:14:30.867Z,11.40
2018-12-06T14:16:59.101Z,11.40
2018-12-06T14:19:27.336Z,11.40
2018-12-06T14:21:55.951Z,11.40
2018-12-06T14:24:24.515Z,11.40
2018-12-06T14:26:52.726Z,11.40
2018-12-06T14:29:20.975Z,11.40
2018-12-06T14:31:49.215Z,11.40
2018-12-06T14:34:17.503Z,11.40
2018-12-06T14:36:45.725Z,11.40
2018-12-06T14:39:13.998Z,11.40
2018-12-06T14:41:42.311Z,11.40
2018-12-06T14:44:10.599Z,11.40
2018-12-06T14:46:38.909Z,11.40
2018-12-06T14:49:07.239Z,11.40
2018-12-06T14:51:35.470Z,11.40
2018-12-06T14:54:03.755Z,11.40
2018-12-06T14:56:31.970Z,11.40
2018-12-06T14:59:00.974Z,11.40
2018-12-06T15:01:29.273Z,11.40
2018-12-06T15:03:57.583Z,11.40
2018-12-06T15:06:25.811Z,11.40
2018-12-06T15:08:54.038Z,11.40
2018-12-06T15:11:22.271Z,11.40
2018-12-06T15:13:50.514Z,11.40
2018-12-06T15:16:18.851Z,11.40
2018-12-06T15:18:47.190Z,11.40
2018-12-06T15:21:15.431Z,11.40
2018-12-06T15:23:43.658Z,11.40
2018-12-06T15:26:11.984Z,11.50
2018-12-06T15:28:40.210Z,11.40
2018-12-06T15:31:08.449Z,11.50
2018-12-06T15:33:36.674Z,11.50
2018-12-06T15:36:04.985Z,11.50
2018-12-06T15:38:33.206Z,11.50
2018-12-06T15:41:01.435Z,11.50
2018-12-06T15:43:29.721Z,11.50
2018-12-06T15:45:58.039Z,11.50
2018-12-06T15:48:26.271Z,11.50
2018-12-06T15:50:54.495Z,11.50
2018-12-06T15:53:22.730Z,11.50
2018-12-06T15:55:51.054Z,11.50
2018-12-06T15:58:19.323Z,11.50
2018-12-06T16:00:47.640Z,11.50
2018-12-06T16:03:15.975Z,11.50
2018-12-06T16:05:44.290Z,11.50
2018-12-06T16:08:13.044Z,11.60
2018-12-06T16:10:41.319Z,11.60
2018-12-06T16:13:09.974Z,11.60
2018-12-06T16:15:38.351Z,11.60
2018-12-06T16:18:06.612Z,11.60
2018-12-06T16:20:34.822Z,11.60
2018-12-06T16:23:03.058Z,11.60
2018-12-06T16:25:31.333Z,11.60
2018-12-06T16:27:59.597Z,11.60
2018-12-06T16:30:27.981Z,11.60
2018-12-06T16:32:56.269Z,11.60
2018-12-06T16:35:24.791Z,11.60
2018-12-06T16:37:53.111Z,11.60
2018-12-06T16:40:21.391Z,11.60
2018-12-06T16:42:49.618Z,11.60
2018-12-06T16:45:17.883Z,11.60
2018-12-06T16:47:46.144Z,11.70
2018-12-06T16:50:14.426Z,11.70
2018-12-06T16:52:42.674Z,11.70
2018-12-06T16:55:11.105Z,11.70
2018-12-06T16:57:39.450Z,11.70
2018-12-06T17:00:11.702Z,11.70
2018-12-06T17:02:40.155Z,11.60
2018-12-06T17:05:08.569Z,11.60
2018-12-06T17:07:36.887Z,11.60
2018-12-06T17:10:06.518Z,11.60
2018-12-06T17:12:35.291Z,11.60
2018-12-06T17:15:03.893Z,11.60
2018-12-06T17:17:32.181Z,11.60
2018-12-06T17:20:00.434Z,11.60
2018-12-06T17:22:28.698Z,11.60
2018-12-06T17:24:56.947Z,11.70
2018-12-06T17:27:25.228Z,11.70
2018-12-06T17:29:53.871Z,11.60
2018-12-06T17:32:22.525Z,11.60
2018-12-06T17:34:50.769Z,11.60
2018-12-06T17:37:19.189Z,11.70
2018-12-06T17:39:47.443Z,11.70
2018-12-06T17:42:15.695Z,11.70
2018-12-06T17:44:44.142Z,11.70
2018-12-06T17:47:12.658Z,11.70
2018-12-06T17:49:40.920Z,11.70
2018-12-06T17:52:09.232Z,11.70
2018-12-06T17:54:37.532Z,11.70
2018-12-06T17:57:06.583Z,11.70
2018-12-06T17:59:36.338Z,11.70
2018-12-06T18:02:05.386Z,11.70
2018-12-06T18:04:33.746Z,11.70
2018-12-06T18:07:02.848Z,11.70
2018-12-06T18:09:31.099Z,11.70
2018-12-06T18:11:59.395Z,11.70
2018-12-06T18:14:27.715Z,11.70
2018-12-06T18:16:56.055Z,11.70
2018-12-06T18:19:24.311Z,11.70
2018-12-06T18:21:52.603Z,11.80
2018-12-06T18:24:20.843Z,11.80
2018-12-06T18:26:49.191Z,11.70
2018-12-06T18:29:17.615Z,11.80
2018-12-06T18:31:45.959Z,11.80
2018-12-06T18:34:14.248Z,11.80
2018-12-06T18:36:42.497Z,11.80
2018-12-06T18:39:10.901Z,11.80
2018-12-06T18:41:39.198Z,11.80
2018-12-06T18:44:07.432Z,11.80
2018-12-06T18:46:35.698Z,11.80
2018-12-06T18:49:04.396Z,11.80
2018-12-06T18:51:32.742Z,11.80
2018-12-06T18:54:01.068Z,11.80
2018-12-06T18:56:29.417Z,11.80
2018-12-06T18:58:57.671Z,11.70
2018-12-06T19:01:25.978Z,11.70
2018-12-06T19:03:54.229Z,11.70
2018-12-06T19:06:22.481Z,11.70
2018-12-06T19:08:50.782Z,11.60
2018-12-06T19:11:19.014Z,11.60
2018-12-06T19:13:47.362Z,11.50
2018-12-06T19:16:22.549Z,11.50
2018-12-06T19:18:50.865Z,11.40
2018-12-06T19:21:19.102Z,11.40
2018-12-06T19:23:47.337Z,11.30
2018-12-06T19:26:15.631Z,11.30
2018-12-06T19:28:43.865Z,11.30
2018-12-06T19:31:12.122Z,11.30
2018-12-06T19:33:40.358Z,11.30
2018-12-06T19:36:08.716Z,11.40
2018-12-06T19:38:37.149Z,11.40
2018-12-06T19:41:05.450Z,11.40
2018-12-06T19:43:33.700Z,11.40
2018-12-06T19:46:02.039Z,11.40
2018-12-06T19:48:30.274Z,11.40
2018-12-06T19:50:58.566Z,11.40
2018-12-06T19:53:26.790Z,11.40
2018-12-06T19:56:09.630Z,11.40
2018-12-06T19:58:37.924Z,11.40
2018-12-06T20:01:06.431Z,11.40
2018-12-06T20:03:34.714Z,11.40
2018-12-06T20:06:03.055Z,11.40
2018-12-06T20:08:31.282Z,11.40
2018-12-06T20:10:59.553Z,11.40
2018-12-06T20:13:27.790Z,11.40
2018-12-06T20:15:56.055Z,11.40
2018-12-06T20:18:24.382Z,11.50
2018-12-06T20:20:52.643Z,11.50
2018-12-06T20:23:20.958Z,11.40
2018-12-06T20:25:49.195Z,11.50
2018-12-06T20:28:17.479Z,11.40
2018-12-06T20:30:45.708Z,11.40
2018-12-06T20:33:13.966Z,11.40
2018-12-06T20:35:42.235Z,11.40
2018-12-06T20:38:10.474Z,11.40
2018-12-06T20:40:38.832Z,11.40
2018-12-06T20:43:07.113Z,11.40
2018-12-06T20:45:35.449Z,11.40
2018-12-06T20:48:03.842Z,11.50
2018-12-06T20:50:32.072Z,11.50
2018-12-06T20:53:00.306Z,11.50
2018-12-06T20:55:28.674Z,11.50
2018-12-06T20:57:57.023Z,11.50
2018-12-06T21:00:25.260Z,11.50
2018-12-06T21:02:53.531Z,11.50
2018-12-06T21:05:21.872Z,11.40
2018-12-06T21:07:50.112Z,11.40
2018-12-06T21:10:18.437Z,11.40
2018-12-06T21:12:46.690Z,11.40
2018-12-06T21:15:14.960Z,11.40
2018-12-06T21:17:43.239Z,11.40
2018-12-06T21:20:11.579Z,11.40
2018-12-06T21:22:39.850Z,11.40
2018-12-06T21:25:08.270Z,11.40
2018-12-06T21:27:36.596Z,11.40
2018-12-06T21:30:05.163Z,11.40
2018-12-06T21:32:33.430Z,11.40
2018-12-06T21:35:01.667Z,11.40
2018-12-06T21:37:29.896Z,11.40
2018-12-06T21:39:58.154Z,11.40
2018-12-06T21:42:26.392Z,11.40
2018-12-06T21:44:54.703Z,11.40
2018-12-06T21:47:25.603Z,11.40
2018-12-06T21:49:54.870Z,11.40
2018-12-06T21:52:23.213Z,11.40
2018-12-06T21:54:51.442Z,11.40
2018-12-06T21:57:19.675Z,11.40
2018-12-06T21:59:48.682Z,11.40
2018-12-06T22:02:22.395Z,11.40
2018-12-06T22:04:50.718Z,11.40
2018-12-06T22:07:19.907Z,11.40
2018-12-06T22:09:48.255Z,11.40
2018-12-06T22:12:16.509Z,11.40
2018-12-06T22:14:44.743Z,11.40
2018-12-06T22:17:12.951Z,11.40
2018-12-06T22:19:41.266Z,11.40
2018-12-06T22:22:09.577Z,11.40
2018-12-06T22:24:37.896Z,11.40
2018-12-06T22:27:06.129Z,11.40
2018-12-06T22:29:34.391Z,11.40
2018-12-06T22:32:02.709Z,11.40
2018-12-06T22:34:30.977Z,11.40
2018-12-06T22:37:00.050Z,11.40
2018-12-06T22:39:28.283Z,11.40
2018-12-06T22:41:56.524Z,11.40
2018-12-06T22:44:24.767Z,11.40
2018-12-06T22:46:53.578Z,11.40
2018-12-06T22:49:21.923Z,11.40
2018-12-06T22:51:50.485Z,11.40
2018-12-06T22:54:18.802Z,11.40
2018-12-06T22:56:47.023Z,11.40
2018-12-06T22:59:15.234Z,11.50
2018-12-06T23:01:43.716Z,11.50
2018-12-06T23:04:11.944Z,11.40
2018-12-06T23:06:40.191Z,11.50
2018-12-06T23:09:09.789Z,11.40
2018-12-06T23:11:38.665Z,11.50
2018-12-06T23:14:07.121Z,11.40
2018-12-06T23:16:35.345Z,11.40
2018-12-06T23:19:04.130Z,11.40
2018-12-06T23:21:32.434Z,11.50
2018-12-06T23:24:00.706Z,11.40
2018-12-06T23:26:29.089Z,11.40
2018-12-06T23:28:57.443Z,11.40
2018-12-06T23:31:25.675Z,11.50
2018-12-06T23:33:53.914Z,11.40
2018-12-06T23:36:22.134Z,11.50
2018-12-06T23:38:50.345Z,11.50
2018-12-06T23:41:18.634Z,11.40
2018-12-06T23:43:46.858Z,11.50
2018-12-06T23:46:15.064Z,11.50
2018-12-06T23:48:43.285Z,11.50
2018-12-06T23:51:22.870Z,11.50
2018-12-06T23:53:51.086Z,11.50
2018-12-06T23:56:19.322Z,11.50
2018-12-06T23:58:47.534Z,11.50
